sensor_id;sensor_type;location;lat;lon;timestamp;pressure;altitude;pressure_sealevel;temperature;humidity
54856;BME280;40748;53.168;5.800;2022-12-18T00:01:40;102790.73000000001;;;-2.86;98.71
54856;BME280;40748;53.168;5.800;2022-12-18T00:04:14;102781.87000000001;;;-2.98;98.21
54856;BME280;40748;53.168;5.800;2022-12-18T00:06:40;102785.94;;;-2.94;98.69
54856;BME280;40748;53.168;5.800;2022-12-18T00:09:10;102781.58;;;-2.95;98.70
54856;BME280;40748;53.168;5.800;2022-12-18T00:11:40;102784.34999999999;;;-2.81;98.72
54856;BME280;40748;53.168;5.800;2022-12-18T00:14:10;102781.45999999999;;;-2.82;98.20
54856;BME280;40748;53.168;5.800;2022-12-18T00:16:42;102787.95;;;-2.79;97.81
54856;BME280;40748;53.168;5.800;2022-12-18T00:19:11;102785.05;;;-2.90;98.35
54856;BME280;40748;53.168;5.800;2022-12-18T00:21:40;102785.05;;;-2.93;98.35
54856;BME280;40748;53.168;5.800;2022-12-18T00:24:10;102778.63;;;-2.87;98.48
54856;BME280;40748;53.168;5.800;2022-12-18T00:26:40;102780.56999999999;;;-2.99;98.13
54856;BME280;40748;53.168;5.800;2022-12-18T00:29:12;102795.02;;;-2.86;98.34
54856;BME280;40748;53.168;5.800;2022-12-18T00:31:40;102800.45999999999;;;-2.84;97.96
54856;BME280;40748;53.168;5.800;2022-12-18T00:34:10;102796.88;;;-2.81;97.61
54856;BME280;40748;53.168;5.800;2022-12-18T00:36:40;102796.13999999998;;;-2.83;97.61
54856;BME280;40748;53.168;5.800;2022-12-18T00:39:10;102798.25;;;-2.77;97.38
54856;BME280;40748;53.168;5.800;2022-12-18T00:41:40;102801.07;;;-2.83;97.28
54856;BME280;40748;53.168;5.800;2022-12-18T00:44:11;102804.7;;;-2.89;97.27
54856;BME280;40748;53.168;5.800;2022-12-18T00:49:10;102810.49;;;-3.02;97.55
54856;BME280;40748;53.168;5.800;2022-12-18T00:51:40;102804.81;;;-2.95;98.10
54856;BME280;40748;53.168;5.800;2022-12-18T00:54:10;102809.17;;;-2.93;97.88
54856;BME280;40748;53.168;5.800;2022-12-18T00:56:40;102805.33;;;-2.90;97.78
54856;BME280;40748;53.168;5.800;2022-12-18T00:59:10;102803.0;;;-2.96;97.71
54856;BME280;40748;53.168;5.800;2022-12-18T01:01:40;102804.32;;;-2.95;97.68
54856;BME280;40748;53.168;5.800;2022-12-18T01:04:10;102804.06;;;-2.97;97.85
54856;BME280;40748;53.168;5.800;2022-12-18T01:06:40;102812.12000000001;;;-2.90;97.75
54856;BME280;40748;53.168;5.800;2022-12-18T01:09:10;102810.05;;;-2.96;97.59
54856;BME280;40748;53.168;5.800;2022-12-18T01:14:10;102813.33;;;-2.98;97.52
54856;BME280;40748;53.168;5.800;2022-12-18T01:16:41;102807.34;;;-3.03;97.32
54856;BME280;40748;53.168;5.800;2022-12-18T01:19:10;102807.34;;;-3.07;97.32
54856;BME280;40748;53.168;5.800;2022-12-18T01:24:10;102809.27999999998;;;-3.03;97.56
54856;BME280;40748;53.168;5.800;2022-12-18T01:26:40;102809.07999999999;;;-3.11;97.20
54856;BME280;40748;53.168;5.800;2022-12-18T01:29:10;102800.17;;;-3.01;97.38
54856;BME280;40748;53.168;5.800;2022-12-18T01:31:40;102805.42;;;-3.14;97.04
54856;BME280;40748;53.168;5.800;2022-12-18T01:34:10;102811.3;;;-2.99;97.27
54856;BME280;40748;53.168;5.800;2022-12-18T01:36:40;102812.49;;;-3.07;96.99
54856;BME280;40748;53.168;5.800;2022-12-18T01:39:11;102824.15000000001;;;-3.00;96.91
54856;BME280;40748;53.168;5.800;2022-12-18T01:41:40;102831.45999999999;;;-3.07;96.71
54856;BME280;40748;53.168;5.800;2022-12-18T01:46:40;102841.56;;;-3.00;96.51
54856;BME280;40748;53.168;5.800;2022-12-18T01:49:10;102848.54000000001;;;-2.95;96.50
54856;BME280;40748;53.168;5.800;2022-12-18T01:51:40;102851.78000000001;;;-2.90;96.21
54856;BME280;40748;53.168;5.800;2022-12-18T01:54:10;102851.35;;;-3.04;96.10
54856;BME280;40748;53.168;5.800;2022-12-18T01:56:40;102848.55;;;-3.08;96.23
54856;BME280;40748;53.168;5.800;2022-12-18T01:59:10;102843.40999999999;;;-3.01;96.54
54856;BME280;40748;53.168;5.800;2022-12-18T02:01:40;102847.03;;;-2.97;96.53
54856;BME280;40748;53.168;5.800;2022-12-18T02:04:18;102846.89000000001;;;-2.96;96.21
54856;BME280;40748;53.168;5.800;2022-12-18T02:06:40;102847.89000000001;;;-2.99;95.97
54856;BME280;40748;53.168;5.800;2022-12-18T02:09:11;102845.15;;;-3.07;95.91
54856;BME280;40748;53.168;5.800;2022-12-18T02:11:43;102842.09000000001;;;-3.19;95.92
54856;BME280;40748;53.168;5.800;2022-12-18T02:14:13;102841.15999999999;;;-3.15;96.36
54856;BME280;40748;53.168;5.800;2022-12-18T02:16:43;102839.05;;;-3.05;96.37
54856;BME280;40748;53.168;5.800;2022-12-18T02:19:14;102843.57;;;-3.19;96.13
54856;BME280;40748;53.168;5.800;2022-12-18T02:21:42;102839.23;;;-3.21;96.19
54856;BME280;40748;53.168;5.800;2022-12-18T02:24:15;102836.40000000001;;;-3.09;96.68
54856;BME280;40748;53.168;5.800;2022-12-18T02:26:41;102828.81999999999;;;-3.17;96.27
54856;BME280;40748;53.168;5.800;2022-12-18T02:29:11;102819.43000000001;;;-3.18;96.16
54856;BME280;40748;53.168;5.800;2022-12-18T02:31:43;102809.71999999999;;;-3.19;96.21
54856;BME280;40748;53.168;5.800;2022-12-18T02:34:10;102808.18999999999;;;-3.21;95.95
54856;BME280;40748;53.168;5.800;2022-12-18T02:36:40;102807.09;;;-3.22;95.92
54856;BME280;40748;53.168;5.800;2022-12-18T02:39:10;102812.43;;;-3.24;95.86
54856;BME280;40748;53.168;5.800;2022-12-18T02:41:40;102811.71999999999;;;-3.29;95.82
54856;BME280;40748;53.168;5.800;2022-12-18T02:44:11;102815.31;;;-3.31;95.78
54856;BME280;40748;53.168;5.800;2022-12-18T02:46:41;102817.90000000001;;;-3.29;95.76
54856;BME280;40748;53.168;5.800;2022-12-18T02:49:12;102813.57;;;-3.33;95.28
54856;BME280;40748;53.168;5.800;2022-12-18T02:51:44;102813.57;;;-3.39;95.28
54856;BME280;40748;53.168;5.800;2022-12-18T02:54:10;102808.3;;;-3.43;95.15
54856;BME280;40748;53.168;5.800;2022-12-18T02:56:41;102802.86000000002;;;-3.48;95.12
54856;BME280;40748;53.168;5.800;2022-12-18T02:59:11;102796.89000000001;;;-3.46;95.10
54856;BME280;40748;53.168;5.800;2022-12-18T03:01:41;102801.86000000002;;;-3.55;94.94
54856;BME280;40748;53.168;5.800;2022-12-18T03:04:11;102802.92;;;-3.62;94.88
54856;BME280;40748;53.168;5.800;2022-12-18T03:06:40;102805.69;;;-3.73;95.12
54856;BME280;40748;53.168;5.800;2022-12-18T03:09:10;102814.81000000001;;;-3.63;95.24
54856;BME280;40748;53.168;5.800;2022-12-18T03:11:41;102817.95999999999;;;-3.73;95.06
54856;BME280;40748;53.168;5.800;2022-12-18T03:14:10;102824.4;;;-3.82;94.82
54856;BME280;40748;53.168;5.800;2022-12-18T03:16:40;102828.02999999998;;;-3.81;95.15
54856;BME280;40748;53.168;5.800;2022-12-18T03:19:11;102822.51000000001;;;-3.79;94.99
54856;BME280;40748;53.168;5.800;2022-12-18T03:21:40;102820.85999999999;;;-3.76;94.86
54856;BME280;40748;53.168;5.800;2022-12-18T03:24:10;102822.35;;;-3.82;94.62
54856;BME280;40748;53.168;5.800;2022-12-18T03:26:40;102826.38999999998;;;-3.84;94.60
54856;BME280;40748;53.168;5.800;2022-12-18T03:29:12;102825.88;;;-3.86;94.49
54856;BME280;40748;53.168;5.800;2022-12-18T03:31:40;102822.27;;;-3.89;94.47
54856;BME280;40748;53.168;5.800;2022-12-18T03:34:12;102817.97999999998;;;-3.97;94.23
54856;BME280;40748;53.168;5.800;2022-12-18T03:36:40;102813.83;;;-4.07;94.38
54856;BME280;40748;53.168;5.800;2022-12-18T03:39:10;102809.92000000001;;;-4.08;94.71
54856;BME280;40748;53.168;5.800;2022-12-18T03:41:41;102805.2;;;-4.25;94.81
54856;BME280;40748;53.168;5.800;2022-12-18T03:44:11;102809.7;;;-4.28;95.47
54856;BME280;40748;53.168;5.800;2022-12-18T03:46:42;102802.77;;;-4.20;95.45
54856;BME280;40748;53.168;5.800;2022-12-18T03:49:11;102802.77;;;-4.24;95.45
54856;BME280;40748;53.168;5.800;2022-12-18T03:51:42;102803.27;;;-4.16;95.41
54856;BME280;40748;53.168;5.800;2022-12-18T03:54:10;102804.81;;;-4.11;95.21
54856;BME280;40748;53.168;5.800;2022-12-18T03:56:41;102815.94;;;-4.13;94.83
54856;BME280;40748;53.168;5.800;2022-12-18T03:59:10;102823.13999999998;;;-4.11;94.62
54856;BME280;40748;53.168;5.800;2022-12-18T04:04:10;102827.45;;;-4.17;94.27
54856;BME280;40748;53.168;5.800;2022-12-18T04:06:40;102819.68;;;-4.24;94.33
54856;BME280;40748;53.168;5.800;2022-12-18T04:09:10;102816.04999999999;;;-4.31;94.20
54856;BME280;40748;53.168;5.800;2022-12-18T04:14:10;102808.31000000001;;;-4.29;94.49
54856;BME280;40748;53.168;5.800;2022-12-18T04:21:40;102805.29;;;-4.31;94.07
54856;BME280;40748;53.168;5.800;2022-12-18T04:24:10;102805.9;;;-4.34;93.93
54856;BME280;40748;53.168;5.800;2022-12-18T04:29:10;102803.96;;;-4.37;93.70
54856;BME280;40748;53.168;5.800;2022-12-18T04:31:40;102803.96;;;-4.41;93.62
54856;BME280;40748;53.168;5.800;2022-12-18T04:34:10;102798.71;;;-4.47;93.60
54856;BME280;40748;53.168;5.800;2022-12-18T04:36:40;102795.5;;;-4.52;93.57
54856;BME280;40748;53.168;5.800;2022-12-18T04:41:40;102799.39;;;-4.50;93.65
54856;BME280;40748;53.168;5.800;2022-12-18T04:44:10;102804.87000000001;;;-4.53;93.56
54856;BME280;40748;53.168;5.800;2022-12-18T04:46:40;102813.23999999999;;;-4.56;93.44
54856;BME280;40748;53.168;5.800;2022-12-18T04:49:10;102816.85;;;-4.58;93.36
54856;BME280;40748;53.168;5.800;2022-12-18T04:51:40;102816.85;;;-4.63;93.38
54856;BME280;40748;53.168;5.800;2022-12-18T04:56:41;102819.01000000001;;;-4.65;93.37
54856;BME280;40748;53.168;5.800;2022-12-18T04:59:10;102817.82;;;-4.66;93.28
54856;BME280;40748;53.168;5.800;2022-12-18T05:01:40;102811.54;;;-4.69;93.23
54856;BME280;40748;53.168;5.800;2022-12-18T05:04:10;102805.35;;;-4.70;93.24
54856;BME280;40748;53.168;5.800;2022-12-18T05:06:40;102803.67000000001;;;-4.72;93.18
54856;BME280;40748;53.168;5.800;2022-12-18T05:09:10;102811.70999999999;;;-4.78;93.17
54856;BME280;40748;53.168;5.800;2022-12-18T05:11:40;102815.66;;;-4.80;93.13
54856;BME280;40748;53.168;5.800;2022-12-18T05:16:40;102818.74;;;-4.83;93.17
54856;BME280;40748;53.168;5.800;2022-12-18T05:19:10;102820.20999999999;;;-4.86;93.12
54856;BME280;40748;53.168;5.800;2022-12-18T05:21:40;102822.85999999999;;;-4.88;93.12
54856;BME280;40748;53.168;5.800;2022-12-18T05:24:10;102826.81;;;-4.89;93.08
54856;BME280;40748;53.168;5.800;2022-12-18T05:26:40;102826.06000000001;;;-4.92;93.03
54856;BME280;40748;53.168;5.800;2022-12-18T05:29:10;102832.6;;;-4.94;93.01
54856;BME280;40748;53.168;5.800;2022-12-18T05:31:40;102836.1;;;-4.97;93.12
54856;BME280;40748;53.168;5.800;2022-12-18T05:34:10;102844.91;;;-5.02;93.14
54856;BME280;40748;53.168;5.800;2022-12-18T05:36:40;102851.79000000001;;;-5.01;93.19
54856;BME280;40748;53.168;5.800;2022-12-18T05:39:10;102860.42;;;-5.03;93.23
54856;BME280;40748;53.168;5.800;2022-12-18T05:41:40;102867.53000000001;;;-5.12;93.25
54856;BME280;40748;53.168;5.800;2022-12-18T05:44:10;102866.31;;;-5.07;93.53
54856;BME280;40748;53.168;5.800;2022-12-18T05:46:40;102865.91;;;-5.08;93.55
54856;BME280;40748;53.168;5.800;2022-12-18T05:49:10;102872.04999999999;;;-5.03;93.38
54856;BME280;40748;53.168;5.800;2022-12-18T05:51:40;102872.04999999999;;;-5.04;93.38
54856;BME280;40748;53.168;5.800;2022-12-18T05:54:10;102873.51000000001;;;-5.10;93.30
54856;BME280;40748;53.168;5.800;2022-12-18T05:56:40;102877.33;;;-5.07;93.45
54856;BME280;40748;53.168;5.800;2022-12-18T05:59:10;102868.80000000002;;;-5.09;93.33
54856;BME280;40748;53.168;5.800;2022-12-18T06:01:40;102866.51999999999;;;-5.08;93.28
54856;BME280;40748;53.168;5.800;2022-12-18T06:09:10;102859.95;;;-5.11;93.00
54856;BME280;40748;53.168;5.800;2022-12-18T06:11:40;102852.37999999999;;;-5.12;92.89
54856;BME280;40748;53.168;5.800;2022-12-18T06:14:10;102852.09;;;-5.14;92.85
54856;BME280;40748;53.168;5.800;2022-12-18T06:16:40;102851.30999999998;;;-5.16;92.61
54856;BME280;40748;53.168;5.800;2022-12-18T06:19:12;102851.30999999998;;;-5.20;92.61
54856;BME280;40748;53.168;5.800;2022-12-18T06:21:40;102841.56;;;-5.24;92.54
54856;BME280;40748;53.168;5.800;2022-12-18T06:24:10;102841.17000000001;;;-5.27;92.51
54856;BME280;40748;53.168;5.800;2022-12-18T06:26:40;102830.90999999999;;;-5.30;92.47
54856;BME280;40748;53.168;5.800;2022-12-18T06:29:10;102824.31999999999;;;-5.37;92.41
54856;BME280;40748;53.168;5.800;2022-12-18T06:31:40;102820.65;;;-5.39;92.35
54856;BME280;40748;53.168;5.800;2022-12-18T06:34:10;102818.06999999999;;;-5.40;92.33
54856;BME280;40748;53.168;5.800;2022-12-18T06:36:40;102818.96999999999;;;-5.41;92.26
54856;BME280;40748;53.168;5.800;2022-12-18T06:39:10;102811.87999999999;;;-5.46;92.17
54856;BME280;40748;53.168;5.800;2022-12-18T06:41:40;102810.21;;;-5.49;92.10
54856;BME280;40748;53.168;5.800;2022-12-18T06:44:10;102809.57;;;-5.54;92.11
54856;BME280;40748;53.168;5.800;2022-12-18T06:46:40;102811.70999999999;;;-5.66;91.98
54856;BME280;40748;53.168;5.800;2022-12-18T06:49:10;102815.48;;;-5.73;92.00
54856;BME280;40748;53.168;5.800;2022-12-18T06:51:40;102819.36;;;-5.71;92.07
54856;BME280;40748;53.168;5.800;2022-12-18T06:54:10;102817.29000000001;;;-5.77;91.89
54856;BME280;40748;53.168;5.800;2022-12-18T06:56:40;102807.21;;;-5.85;91.61
54856;BME280;40748;53.168;5.800;2022-12-18T06:59:10;102804.93;;;-5.93;91.53
54856;BME280;40748;53.168;5.800;2022-12-18T07:01:40;102798.88;;;-5.96;91.68
54856;BME280;40748;53.168;5.800;2022-12-18T07:04:10;102795.72;;;-5.99;91.46
54856;BME280;40748;53.168;5.800;2022-12-18T07:06:40;102786.22;;;-6.01;91.36
54856;BME280;40748;53.168;5.800;2022-12-18T07:09:10;102788.15;;;-6.09;91.37
54856;BME280;40748;53.168;5.800;2022-12-18T07:11:40;102784.07999999999;;;-6.08;91.37
54856;BME280;40748;53.168;5.800;2022-12-18T07:14:10;102782.96;;;-6.10;91.51
54856;BME280;40748;53.168;5.800;2022-12-18T07:16:40;102787.22;;;-6.11;91.58
54856;BME280;40748;53.168;5.800;2022-12-18T07:19:10;102785.81999999999;;;-6.10;91.64
54856;BME280;40748;53.168;5.800;2022-12-18T07:24:10;102791.96999999999;;;-6.09;91.73
54856;BME280;40748;53.168;5.800;2022-12-18T07:26:40;102787.46;;;-6.10;91.68
54856;BME280;40748;53.168;5.800;2022-12-18T07:29:10;102784.18;;;-6.08;91.69
54856;BME280;40748;53.168;5.800;2022-12-18T07:34:10;102786.07999999999;;;-6.06;91.76
54856;BME280;40748;53.168;5.800;2022-12-18T07:36:40;102798.1;;;-6.04;91.90
54856;BME280;40748;53.168;5.800;2022-12-18T07:39:10;102798.1;;;-6.00;91.90
54856;BME280;40748;53.168;5.800;2022-12-18T07:49:11;102784.88;;;-6.02;92.01
54856;BME280;40748;53.168;5.800;2022-12-18T07:54:10;102779.43000000001;;;-6.01;92.03
54856;BME280;40748;53.168;5.800;2022-12-18T07:56:40;102779.43000000001;;;-6.00;92.13
54856;BME280;40748;53.168;5.800;2022-12-18T07:59:10;102775.05000000002;;;-5.99;92.11
54856;BME280;40748;53.168;5.800;2022-12-18T08:01:40;102766.55;;;-5.98;92.16
54856;BME280;40748;53.168;5.800;2022-12-18T08:04:10;102766.55;;;-5.94;92.11
54856;BME280;40748;53.168;5.800;2022-12-18T08:06:40;102768.69999999998;;;-6.02;92.04
54856;BME280;40748;53.168;5.800;2022-12-18T08:09:10;102767.0;;;-6.03;92.05
54856;BME280;40748;53.168;5.800;2022-12-18T08:11:40;102766.63;;;-6.04;92.44
54856;BME280;40748;53.168;5.800;2022-12-18T08:14:10;102766.5;;;-5.99;92.50
54856;BME280;40748;53.168;5.800;2022-12-18T08:19:10;102766.85;;;-5.95;92.81
54856;BME280;40748;53.168;5.800;2022-12-18T08:21:40;102764.60999999999;;;-5.86;92.96
54856;BME280;40748;53.168;5.800;2022-12-18T08:24:10;102770.0;;;-5.88;92.86
54856;BME280;40748;53.168;5.800;2022-12-18T08:26:40;102773.62000000001;;;-5.81;92.98
54856;BME280;40748;53.168;5.800;2022-12-18T08:29:10;102777.08;;;-5.74;93.10
54856;BME280;40748;53.168;5.800;2022-12-18T08:31:40;102778.29999999999;;;-5.70;92.99
54856;BME280;40748;53.168;5.800;2022-12-18T08:34:10;102771.19;;;-5.64;93.16
54856;BME280;40748;53.168;5.800;2022-12-18T08:36:40;102771.19;;;-5.56;93.10
54856;BME280;40748;53.168;5.800;2022-12-18T08:39:10;102783.94;;;-5.49;93.14
54856;BME280;40748;53.168;5.800;2022-12-18T08:41:40;102784.59;;;-5.47;93.13
54856;BME280;40748;53.168;5.800;2022-12-18T08:44:10;102784.59;;;-5.40;93.13
54856;BME280;40748;53.168;5.800;2022-12-18T08:46:41;102781.96;;;-5.39;93.18
54856;BME280;40748;53.168;5.800;2022-12-18T08:49:10;102775.23000000001;;;-5.35;93.27
54856;BME280;40748;53.168;5.800;2022-12-18T08:51:40;102775.06000000001;;;-5.31;93.42
54856;BME280;40748;53.168;5.800;2022-12-18T08:54:10;102765.00000000001;;;-5.25;93.54
54856;BME280;40748;53.168;5.800;2022-12-18T08:56:40;102772.88;;;-5.21;93.59
54856;BME280;40748;53.168;5.800;2022-12-18T08:59:10;102781.93000000001;;;-5.16;93.74
54856;BME280;40748;53.168;5.800;2022-12-18T09:01:40;102776.79000000001;;;-5.09;93.95
54856;BME280;40748;53.168;5.800;2022-12-18T09:04:10;102779.72;;;-5.02;93.99
54856;BME280;40748;53.168;5.800;2022-12-18T09:06:40;102788.67;;;-4.97;94.10
54856;BME280;40748;53.168;5.800;2022-12-18T09:09:10;102788.54;;;-4.90;94.18
54856;BME280;40748;53.168;5.800;2022-12-18T09:11:40;102786.95;;;-4.84;94.32
54856;BME280;40748;53.168;5.800;2022-12-18T09:14:10;102785.78;;;-4.74;94.46
54856;BME280;40748;53.168;5.800;2022-12-18T09:16:40;102787.94;;;-4.68;94.49
54856;BME280;40748;53.168;5.800;2022-12-18T09:19:10;102794.47;;;-4.59;94.63
54856;BME280;40748;53.168;5.800;2022-12-18T09:21:40;102792.15;;;-4.48;94.78
54856;BME280;40748;53.168;5.800;2022-12-18T09:24:11;102792.91;;;-4.39;94.77
54856;BME280;40748;53.168;5.800;2022-12-18T09:26:40;102793.12;;;-4.29;94.89
54856;BME280;40748;53.168;5.800;2022-12-18T09:29:10;102788.31;;;-4.22;94.93
54856;BME280;40748;53.168;5.800;2022-12-18T09:31:40;102786.29000000001;;;-4.14;95.02
54856;BME280;40748;53.168;5.800;2022-12-18T09:34:10;102798.17;;;-4.04;95.14
54856;BME280;40748;53.168;5.800;2022-12-18T09:36:40;102793.96999999999;;;-3.98;95.22
54856;BME280;40748;53.168;5.800;2022-12-18T09:39:10;102792.57;;;-3.91;95.29
54856;BME280;40748;53.168;5.800;2022-12-18T09:41:41;102792.58;;;-3.82;95.38
54856;BME280;40748;53.168;5.800;2022-12-18T09:44:13;102786.67;;;-3.77;95.27
54856;BME280;40748;53.168;5.800;2022-12-18T09:46:42;102786.67;;;-3.72;95.27
54856;BME280;40748;53.168;5.800;2022-12-18T09:49:11;102782.87;;;-3.69;95.15
54856;BME280;40748;53.168;5.800;2022-12-18T09:54:11;102767.92;;;-3.67;95.20
54856;BME280;40748;53.168;5.800;2022-12-18T09:56:41;102759.16;;;-3.59;95.24
54856;BME280;40748;53.168;5.800;2022-12-18T09:59:14;102755.10999999999;;;-3.58;95.29
54856;BME280;40748;53.168;5.800;2022-12-18T10:01:40;102742.53000000001;;;-3.53;95.26
54856;BME280;40748;53.168;5.800;2022-12-18T10:04:10;102740.24999999999;;;-3.51;95.17
54856;BME280;40748;53.168;5.800;2022-12-18T10:06:43;102734.16;;;-3.49;95.21
54856;BME280;40748;53.168;5.800;2022-12-18T10:09:14;102733.11000000002;;;-3.52;95.35
54856;BME280;40748;53.168;5.800;2022-12-18T10:11:42;102734.86;;;-3.47;95.41
54856;BME280;40748;53.168;5.800;2022-12-18T10:14:12;102721.36;;;-3.48;95.63
54856;BME280;40748;53.168;5.800;2022-12-18T10:16:41;102721.36;;;-3.45;95.64
54856;BME280;40748;53.168;5.800;2022-12-18T10:19:15;102716.04999999999;;;-3.34;95.94
54856;BME280;40748;53.168;5.800;2022-12-18T10:21:41;102718.90000000001;;;-3.25;95.87
54856;BME280;40748;53.168;5.800;2022-12-18T10:24:12;102703.63;;;-3.19;95.74
54856;BME280;40748;53.168;5.800;2022-12-18T10:26:40;102695.52;;;-3.11;95.84
54856;BME280;40748;53.168;5.800;2022-12-18T10:29:10;102693.86;;;-3.04;95.70
54856;BME280;40748;53.168;5.800;2022-12-18T10:31:40;102703.98;;;-2.91;95.92
54856;BME280;40748;53.168;5.800;2022-12-18T10:34:10;102703.38999999998;;;-2.84;95.82
54856;BME280;40748;53.168;5.800;2022-12-18T10:36:40;102707.89;;;-2.80;95.83
54856;BME280;40748;53.168;5.800;2022-12-18T10:39:18;102703.65999999999;;;-2.75;95.73
54856;BME280;40748;53.168;5.800;2022-12-18T10:41:40;102710.26999999999;;;-2.65;95.93
54856;BME280;40748;53.168;5.800;2022-12-18T10:44:11;102710.53;;;-2.57;95.83
54856;BME280;40748;53.168;5.800;2022-12-18T10:46:40;102709.03000000001;;;-2.53;95.73
54856;BME280;40748;53.168;5.800;2022-12-18T10:49:18;102705.10999999999;;;-2.48;95.85
54856;BME280;40748;53.168;5.800;2022-12-18T10:51:40;102702.14000000001;;;-2.43;95.89
54856;BME280;40748;53.168;5.800;2022-12-18T10:54:13;102693.51999999999;;;-2.39;95.75
54856;BME280;40748;53.168;5.800;2022-12-18T10:56:40;102695.54000000001;;;-2.51;95.71
54856;BME280;40748;53.168;5.800;2022-12-18T10:59:12;102690.55;;;-2.39;95.72
54856;BME280;40748;53.168;5.800;2022-12-18T11:01:48;102687.85;;;-2.30;96.10
54856;BME280;40748;53.168;5.800;2022-12-18T11:04:13;102684.18;;;-2.24;95.86
54856;BME280;40748;53.168;5.800;2022-12-18T11:06:52;102673.88;;;-2.19;95.90
54856;BME280;40748;53.168;5.800;2022-12-18T11:09:18;102664.77;;;-2.14;95.69
54856;BME280;40748;53.168;5.800;2022-12-18T11:11:40;102663.5;;;-2.17;95.75
54856;BME280;40748;53.168;5.800;2022-12-18T11:14:12;102661.5;;;-2.14;95.43
54856;BME280;40748;53.168;5.800;2022-12-18T11:16:43;102661.71999999999;;;-2.09;95.81
54856;BME280;40748;53.168;5.800;2022-12-18T11:19:18;102657.21;;;-2.07;95.65
54856;BME280;40748;53.168;5.800;2022-12-18T11:21:40;102653.37999999999;;;-2.04;95.78
54856;BME280;40748;53.168;5.800;2022-12-18T11:24:15;102645.46;;;-2.03;95.68
54856;BME280;40748;53.168;5.800;2022-12-18T11:26:40;102636.78;;;-2.07;95.75
54856;BME280;40748;53.168;5.800;2022-12-18T11:29:12;102636.67;;;-2.03;95.40
54856;BME280;40748;53.168;5.800;2022-12-18T11:34:11;102633.78;;;-2.05;95.44
54856;BME280;40748;53.168;5.800;2022-12-18T11:36:41;102636.01000000001;;;-1.98;95.42
54856;BME280;40748;53.168;5.800;2022-12-18T11:39:12;102627.87000000001;;;-1.94;95.44
54856;BME280;40748;53.168;5.800;2022-12-18T11:41:41;102615.78;;;-1.95;95.57
54856;BME280;40748;53.168;5.800;2022-12-18T11:44:10;102608.27999999998;;;-1.94;95.48
54856;BME280;40748;53.168;5.800;2022-12-18T11:46:43;102606.15000000001;;;-1.87;95.61
54856;BME280;40748;53.168;5.800;2022-12-18T11:49:11;102595.74;;;-1.93;95.15
54856;BME280;40748;53.168;5.800;2022-12-18T11:51:41;102595.12999999999;;;-1.88;95.08
54856;BME280;40748;53.168;5.800;2022-12-18T11:56:42;102579.16;;;-1.92;95.47
54856;BME280;40748;53.168;5.800;2022-12-18T11:59:14;102571.31;;;-1.86;95.37
54856;BME280;40748;53.168;5.800;2022-12-18T12:01:43;102552.61;;;-1.81;95.41
54856;BME280;40748;53.168;5.800;2022-12-18T12:04:17;102552.61;;;-1.82;95.44
54856;BME280;40748;53.168;5.800;2022-12-18T12:06:42;102546.77999999998;;;-1.86;95.25
54856;BME280;40748;53.168;5.800;2022-12-18T12:09:11;102541.70999999999;;;-1.78;95.10
54856;BME280;40748;53.168;5.800;2022-12-18T12:11:42;102545.15;;;-1.82;95.10
54856;BME280;40748;53.168;5.800;2022-12-18T12:14:15;102531.49;;;-1.88;94.42
54856;BME280;40748;53.168;5.800;2022-12-18T12:16:42;102531.49;;;-1.89;94.42
54856;BME280;40748;53.168;5.800;2022-12-18T12:19:15;102526.34000000001;;;-1.82;94.77
54856;BME280;40748;53.168;5.800;2022-12-18T12:21:41;102531.73999999999;;;-1.90;94.87
54856;BME280;40748;53.168;5.800;2022-12-18T12:24:15;102530.74999999999;;;-1.82;94.62
54856;BME280;40748;53.168;5.800;2022-12-18T12:26:42;102529.59000000001;;;-1.81;95.07
54856;BME280;40748;53.168;5.800;2022-12-18T12:31:45;102531.31000000001;;;-1.76;94.99
54856;BME280;40748;53.168;5.800;2022-12-18T12:34:12;102534.06;;;-1.74;94.27
54856;BME280;40748;53.168;5.800;2022-12-18T12:36:41;102526.14000000001;;;-1.73;94.70
54856;BME280;40748;53.168;5.800;2022-12-18T12:39:10;102522.38;;;-1.60;95.03
54856;BME280;40748;53.168;5.800;2022-12-18T12:41:40;102516.54000000001;;;-1.59;94.91
54856;BME280;40748;53.168;5.800;2022-12-18T12:44:13;102514.75;;;-1.50;94.83
54856;BME280;40748;53.168;5.800;2022-12-18T12:46:40;102504.73999999999;;;-1.52;94.79
54856;BME280;40748;53.168;5.800;2022-12-18T12:49:12;102494.52000000002;;;-1.51;94.39
54856;BME280;40748;53.168;5.800;2022-12-18T12:51:41;102490.59;;;-1.59;94.70
54856;BME280;40748;53.168;5.800;2022-12-18T12:54:12;102495.65;;;-1.45;94.62
54856;BME280;40748;53.168;5.800;2022-12-18T12:56:42;102490.84;;;-1.47;94.39
54856;BME280;40748;53.168;5.800;2022-12-18T12:59:12;102497.75;;;-1.42;94.43
54856;BME280;40748;53.168;5.800;2022-12-18T13:01:40;102507.06999999999;;;-1.34;94.48
54856;BME280;40748;53.168;5.800;2022-12-18T13:04:14;102502.08;;;-1.30;94.25
54856;BME280;40748;53.168;5.800;2022-12-18T13:06:42;102499.79000000001;;;-1.23;94.13
54856;BME280;40748;53.168;5.800;2022-12-18T13:09:10;102496.68999999999;;;-1.25;93.94
54856;BME280;40748;53.168;5.800;2022-12-18T13:11:41;102497.19;;;-1.22;94.01
54856;BME280;40748;53.168;5.800;2022-12-18T13:16:40;102498.20999999999;;;-1.14;93.77
54856;BME280;40748;53.168;5.800;2022-12-18T13:19:18;102497.72;;;-1.10;93.90
54856;BME280;40748;53.168;5.800;2022-12-18T13:21:40;102488.15999999999;;;-1.08;93.71
54856;BME280;40748;53.168;5.800;2022-12-18T13:24:14;102484.97;;;-1.07;93.76
54856;BME280;40748;53.168;5.800;2022-12-18T13:26:40;102477.14000000001;;;-1.04;93.56
54856;BME280;40748;53.168;5.800;2022-12-18T13:29:10;102480.73999999999;;;-1.01;93.59
54856;BME280;40748;53.168;5.800;2022-12-18T13:34:15;102474.11;;;-0.98;93.57
54856;BME280;40748;53.168;5.800;2022-12-18T13:36:40;102476.83;;;-0.95;93.47